createdAt,value
2019-03-06T00:02:37.091Z,6.40
2019-03-06T00:08:46.231Z,8.03
2019-03-06T00:11:47.876Z,7.80
2019-03-06T00:14:49.122Z,7.10
2019-03-06T00:17:50.692Z,7.60
2019-03-06T00:23:58.722Z,7.25
2019-03-06T00:27:00.200Z,7.85
2019-03-06T00:30:01.628Z,8.20
2019-03-06T00:33:01.757Z,9.18
2019-03-06T00:39:55.451Z,9.17
2019-03-06T00:42:56.594Z,8.68
2019-03-06T00:45:57.762Z,9.07
2019-03-06T00:48:58.823Z,8.47
2019-03-06T00:52:00.428Z,9.67
2019-03-06T00:55:01.503Z,9.10
2019-03-06T01:00:45.380Z,9.77
2019-03-06T01:03:47.191Z,9.00
2019-03-06T01:06:54.625Z,10.40
2019-03-06T01:09:55.936Z,10.30
2019-03-06T01:12:57.832Z,10.13
2019-03-06T01:15:59.628Z,8.97
2019-03-06T01:19:00.479Z,9.40
2019-03-06T01:21:50.077Z,9.90
2019-03-06T01:24:39.926Z,9.33
2019-03-06T01:27:41.256Z,8.83
2019-03-06T01:30:41.245Z,8.53
2019-03-06T01:37:23.620Z,9.70
2019-03-06T01:40:31.710Z,8.77
2019-03-06T01:46:50.359Z,10.00
2019-03-06T01:49:51.387Z,9.27
2019-03-06T01:52:52.881Z,12.57
2019-03-06T01:55:53.916Z,8.67
2019-03-06T01:58:55.160Z,9.90
2019-03-06T02:01:56.547Z,9.00
2019-03-06T02:04:57.858Z,9.73
2019-03-06T02:08:05.837Z,9.30
2019-03-06T02:11:08.107Z,9.57
2019-03-06T02:14:09.846Z,8.93
2019-03-06T02:17:11.683Z,15.17
2019-03-06T02:20:12.847Z,9.73
2019-03-06T02:23:14.797Z,9.20
2019-03-06T02:26:16.483Z,9.37
2019-03-06T02:29:17.678Z,9.73
2019-03-06T02:32:18.930Z,9.60
2019-03-06T02:35:20.877Z,9.30
2019-03-06T02:38:27.998Z,9.30
2019-03-06T02:41:29.898Z,8.20
2019-03-06T02:44:31.597Z,8.23
2019-03-06T02:47:32.977Z,7.97
2019-03-06T02:50:33.997Z,8.80
2019-03-06T02:53:35.663Z,8.47
2019-03-06T02:56:37.672Z,9.00
2019-03-06T02:59:44.659Z,8.20
2019-03-06T03:02:53.634Z,8.10
2019-03-06T03:06:06.240Z,9.30
2019-03-06T03:12:14.923Z,8.53
2019-03-06T03:15:16.672Z,9.20
2019-03-06T03:18:17.656Z,9.03
2019-03-06T03:21:17.568Z,7.50
2019-03-06T03:24:26.463Z,8.03
2019-03-06T03:27:28.515Z,8.70
2019-03-06T03:30:18.445Z,9.03
2019-03-06T03:36:40.995Z,9.03
2019-03-06T03:42:48.832Z,10.00
2019-03-06T03:45:49.933Z,11.30
2019-03-06T03:48:50.941Z,8.07
2019-03-06T03:51:52.732Z,8.60
2019-03-06T03:57:56.202Z,9.40
2019-03-06T04:04:06.649Z,10.17
2019-03-06T04:07:07.765Z,10.27
2019-03-06T04:09:57.304Z,9.67
2019-03-06T04:13:06.108Z,9.80
2019-03-06T04:16:07.583Z,9.53
2019-03-06T04:19:08.375Z,10.07
2019-03-06T04:22:10.087Z,9.50
2019-03-06T04:25:11.071Z,10.80
2019-03-06T04:28:12.286Z,10.30
2019-03-06T04:31:02.321Z,12.40
2019-03-06T04:34:11.342Z,11.10
2019-03-06T04:37:13.466Z,9.83
2019-03-06T04:43:29.394Z,11.90
2019-03-06T04:46:30.736Z,12.50
2019-03-06T04:49:31.827Z,11.87
2019-03-06T04:52:33.212Z,10.80
2019-03-06T04:55:34.898Z,11.13
2019-03-06T04:58:36.046Z,11.30
2019-03-06T05:01:37.671Z,12.13
2019-03-06T05:04:39.175Z,12.30
2019-03-06T05:07:40.020Z,11.07
2019-03-06T05:13:48.735Z,11.90
2019-03-06T05:17:09.359Z,13.43
2019-03-06T05:20:11.082Z,11.80
2019-03-06T05:23:13.075Z,10.83
2019-03-06T05:26:14.001Z,12.17
2019-03-06T05:29:15.486Z,14.30
2019-03-06T05:32:43.599Z,12.20
2019-03-06T05:36:11.736Z,12.90
2019-03-06T05:39:13.365Z,12.80
2019-03-06T05:42:21.147Z,11.53
2019-03-06T05:45:22.462Z,12.77
2019-03-06T05:48:23.524Z,12.37
2019-03-06T05:51:25.254Z,13.40
2019-03-06T05:54:27.064Z,12.90
2019-03-06T05:57:28.291Z,12.13
2019-03-06T06:00:30.596Z,12.37
2019-03-06T06:03:31.946Z,14.70
2019-03-06T06:06:33.811Z,15.23
2019-03-06T06:09:33.564Z,14.87
2019-03-06T06:19:04.038Z,13.97
2019-03-06T06:32:19.382Z,12.43
2019-03-06T06:35:20.434Z,12.50
2019-03-06T06:38:22.022Z,15.80
2019-03-06T06:47:42.278Z,14.70
2019-03-06T06:50:43.459Z,14.73
2019-03-06T06:53:45.054Z,15.30
2019-03-06T06:56:46.903Z,15.23
2019-03-06T07:03:29.532Z,12.47
2019-03-06T07:06:49.466Z,12.40
2019-03-06T07:10:09.629Z,12.50
2019-03-06T07:13:22.780Z,12.57
2019-03-06T07:16:42.987Z,8.57
2019-03-06T07:19:53.866Z,10.30
2019-03-06T07:23:13.959Z,9.87
2019-03-06T07:26:34.094Z,9.87
2019-03-06T07:29:46.864Z,9.90
2019-03-06T07:36:24.519Z,10.90
2019-03-06T07:39:39.121Z,9.90
2019-03-06T07:42:48.061Z,9.20
2019-03-06T07:46:08.080Z,11.07
2019-03-06T08:16:38.856Z,7.67
2019-03-06T08:19:59.840Z,8.27
2019-03-06T08:23:15.494Z,7.63
2019-03-06T08:26:17.402Z,8.30
2019-03-06T08:29:18.398Z,7.00
2019-03-06T08:32:38.394Z,6.60
2019-03-06T08:35:39.990Z,7.63
2019-03-06T08:38:41.420Z,7.07
2019-03-06T08:41:41.653Z,6.07
2019-03-06T08:44:41.193Z,5.07
2019-03-06T08:48:04.779Z,6.57
2019-03-06T08:51:15.906Z,6.10
2019-03-06T08:54:31.564Z,5.00
2019-03-06T08:57:42.790Z,5.67
2019-03-06T09:04:25.548Z,4.30
2019-03-06T09:11:21.962Z,3.87
2019-03-06T09:14:42.273Z,3.37
2019-03-06T09:18:09.102Z,3.47
2019-03-06T09:21:25.279Z,3.80
2019-03-06T09:24:45.304Z,2.93
2019-03-06T09:28:01.778Z,3.87
2019-03-06T09:31:11.503Z,2.97
2019-03-06T09:38:10.998Z,2.83
2019-03-06T09:41:30.234Z,2.90
2019-03-06T09:44:58.114Z,2.93
2019-03-06T09:51:23.627Z,4.90
2019-03-06T09:54:44.121Z,2.67
2019-03-06T09:57:58.566Z,2.63
2019-03-06T10:01:18.537Z,2.17
2019-03-06T10:04:25.724Z,2.87
2019-03-06T10:07:43.658Z,2.70
2019-03-06T10:11:03.646Z,2.60
2019-03-06T10:14:23.671Z,2.17
2019-03-06T10:17:32.999Z,2.57
2019-03-06T10:23:41.181Z,2.50
2019-03-06T10:26:31.213Z,2.80
2019-03-06T10:32:35.191Z,3.07
2019-03-06T10:38:51.595Z,2.90
2019-03-06T10:41:52.745Z,3.17
2019-03-06T10:44:54.119Z,3.33
2019-03-06T10:47:56.260Z,2.47
2019-03-06T10:54:04.410Z,3.10
2019-03-06T10:57:05.931Z,3.10
2019-03-06T11:00:07.353Z,2.87
2019-03-06T11:03:08.789Z,2.73
2019-03-06T11:06:10.283Z,3.00
2019-03-06T11:09:12.049Z,2.27
2019-03-06T11:12:13.789Z,3.17
2019-03-06T11:15:15.188Z,3.20
2019-03-06T11:18:16.672Z,3.13
2019-03-06T11:21:23.929Z,2.67
2019-03-06T11:24:29.796Z,2.80
2019-03-06T11:27:30.887Z,3.10
2019-03-06T11:30:32.772Z,2.50
2019-03-06T11:33:32.803Z,3.10
2019-03-06T11:36:34.624Z,2.80
2019-03-06T11:39:36.370Z,2.47
2019-03-06T11:42:37.338Z,2.37
2019-03-06T11:45:39.309Z,3.17
2019-03-06T11:52:01.462Z,2.30
2019-03-06T11:55:10.379Z,2.20
2019-03-06T11:58:13.151Z,2.30
2019-03-06T12:01:14.290Z,2.57
2019-03-06T12:04:15.222Z,1.83
2019-03-06T12:07:04.876Z,2.17
2019-03-06T12:10:13.592Z,1.77
2019-03-06T12:13:19.763Z,1.70
2019-03-06T12:16:21.169Z,2.27
2019-03-06T12:19:22.535Z,1.70
2019-03-06T12:25:30.888Z,1.50
2019-03-06T12:28:32.836Z,1.30
2019-03-06T12:31:34.630Z,1.57
2019-03-06T12:34:35.875Z,1.77
2019-03-06T12:37:46.534Z,1.30
2019-03-06T12:40:43.806Z,1.83
2019-03-06T12:43:45.257Z,1.47
2019-03-06T12:46:47.223Z,1.90
2019-03-06T12:49:49.575Z,1.37
2019-03-06T12:55:57.776Z,1.50
2019-03-06T12:58:59.604Z,1.50
2019-03-06T13:02:03.171Z,1.33
2019-03-06T13:05:05.050Z,1.30
2019-03-06T13:08:07.245Z,1.20
2019-03-06T13:11:09.122Z,1.40
2019-03-06T13:14:11.058Z,1.40
2019-03-06T13:17:13.615Z,1.57
2019-03-06T13:20:15.603Z,1.60
2019-03-06T13:26:25.176Z,1.30
2019-03-06T13:29:26.332Z,1.60
2019-03-06T13:45:30.877Z,1.40
2019-03-06T13:48:32.043Z,1.00
2019-03-06T13:51:34.132Z,1.47
2019-03-06T13:54:44.406Z,1.20
2019-03-06T13:57:49.598Z,1.40
2019-03-06T14:00:57.170Z,1.77
2019-03-06T14:03:59.587Z,2.03
2019-03-06T14:07:00.761Z,1.53
2019-03-06T14:10:02.338Z,1.40
2019-03-06T14:13:05.962Z,1.43
2019-03-06T14:16:10.190Z,1.60
2019-03-06T14:19:11.407Z,1.60
2019-03-06T14:22:13.236Z,1.30
2019-03-06T14:25:20.430Z,1.40
2019-03-06T14:28:24.213Z,1.60
2019-03-06T14:31:26.312Z,3.00
2019-03-06T14:34:28.019Z,2.90
2019-03-06T14:37:29.493Z,1.77
2019-03-06T14:40:31.461Z,1.83
2019-03-06T14:43:33.475Z,1.93
2019-03-06T14:46:35.000Z,1.53
2019-03-06T14:49:37.031Z,2.03
2019-03-06T14:52:38.885Z,2.10
2019-03-06T14:58:47.607Z,1.63
2019-03-06T15:01:49.596Z,1.63
2019-03-06T15:04:50.523Z,1.80
2019-03-06T15:07:51.674Z,1.50
2019-03-06T15:10:52.986Z,1.70
2019-03-06T15:13:54.998Z,1.50
2019-03-06T15:16:44.547Z,1.40
2019-03-06T15:29:28.264Z,1.53
2019-03-06T15:32:29.706Z,1.60
2019-03-06T15:35:30.999Z,1.73
2019-03-06T15:38:32.238Z,1.70
2019-03-06T15:41:35.032Z,1.60
2019-03-06T15:44:36.371Z,1.50
2019-03-06T15:47:38.954Z,1.50
2019-03-06T15:50:40.224Z,1.60
2019-03-06T15:53:41.367Z,1.83
2019-03-06T16:02:59.543Z,1.80
2019-03-06T16:06:00.629Z,1.53
2019-03-06T16:09:08.189Z,1.90
2019-03-06T16:12:12.329Z,1.90
2019-03-06T16:15:13.763Z,1.87
2019-03-06T16:18:14.915Z,1.60
2019-03-06T16:21:16.255Z,1.40
2019-03-06T16:24:17.682Z,1.93
2019-03-06T16:30:26.440Z,1.30
2019-03-06T16:33:27.956Z,1.70
2019-03-06T16:36:30.121Z,1.63
2019-03-06T16:39:32.089Z,1.63
2019-03-06T16:45:39.756Z,1.73
2019-03-06T16:55:30.823Z,1.97
2019-03-06T16:58:38.479Z,1.60
2019-03-06T17:01:41.829Z,1.83
2019-03-06T17:04:43.647Z,1.77
2019-03-06T17:07:45.414Z,2.33
2019-03-06T17:10:47.151Z,2.70
2019-03-06T17:13:47.424Z,1.90
2019-03-06T17:16:56.328Z,1.87
2019-03-06T17:19:58.296Z,1.90
2019-03-06T17:35:43.411Z,1.90
2019-03-06T17:38:44.677Z,3.00
2019-03-06T17:41:46.460Z,2.70
2019-03-06T17:44:48.016Z,2.53
2019-03-06T17:47:48.881Z,2.23
2019-03-06T17:50:50.966Z,2.50
2019-03-06T17:53:52.958Z,2.23
2019-03-06T17:56:54.692Z,2.77
2019-03-06T18:03:03.579Z,2.60
2019-03-06T18:06:06.329Z,3.10
2019-03-06T18:09:08.872Z,2.60
2019-03-06T18:12:16.841Z,2.57
2019-03-06T18:15:18.194Z,2.70
2019-03-06T18:18:20.150Z,2.90
2019-03-06T18:21:21.199Z,2.30
2019-03-06T18:24:22.492Z,3.37
2019-03-06T18:27:26.510Z,2.03
2019-03-06T18:33:34.322Z,2.93
2019-03-06T18:36:36.153Z,2.83
2019-03-06T18:39:36.342Z,2.90
2019-03-06T18:42:45.457Z,3.30
2019-03-06T18:45:46.860Z,2.27
2019-03-06T18:48:48.619Z,2.70
2019-03-06T18:51:50.752Z,3.63
2019-03-06T18:54:52.293Z,2.60
2019-03-06T18:57:54.863Z,3.13
2019-03-06T19:04:03.173Z,2.97
2019-03-06T19:07:04.243Z,3.17
2019-03-06T19:10:06.363Z,3.00
2019-03-06T19:13:07.759Z,3.00
2019-03-06T19:16:09.785Z,4.00
2019-03-06T19:19:10.023Z,3.67
2019-03-06T19:22:11.440Z,4.50
2019-03-06T19:51:12.879Z,2.87
2019-03-06T19:54:14.259Z,2.90
2019-03-06T19:57:16.247Z,3.70
2019-03-06T20:00:18.219Z,3.60
2019-03-06T20:03:25.961Z,3.37
2019-03-06T20:06:28.190Z,3.73
2019-03-06T20:09:30.344Z,3.70
2019-03-06T20:12:31.870Z,3.43
2019-03-06T20:15:33.153Z,2.90
2019-03-06T20:18:35.189Z,3.00
2019-03-06T20:21:36.708Z,3.00
2019-03-06T20:24:38.078Z,2.90
2019-03-06T20:27:39.215Z,2.93
2019-03-06T20:30:40.875Z,3.40
2019-03-06T20:33:48.044Z,4.63
2019-03-06T20:36:50.304Z,4.03
2019-03-06T20:39:51.733Z,2.73
2019-03-06T20:42:52.820Z,3.03
2019-03-06T20:45:54.831Z,3.20
2019-03-06T20:48:56.508Z,2.90
2019-03-06T20:51:59.194Z,2.87
2019-03-06T20:55:01.806Z,3.27
2019-03-06T20:58:03.839Z,2.90
2019-03-06T21:01:07.235Z,3.40
2019-03-06T21:04:15.020Z,3.50
2019-03-06T21:07:21.139Z,3.90
2019-03-06T21:10:22.886Z,7.63
2019-03-06T21:13:24.477Z,3.53
2019-03-06T21:16:25.552Z,3.43
2019-03-06T21:19:30.403Z,3.17
2019-03-06T21:22:32.148Z,3.40
2019-03-06T21:25:32.263Z,2.80
2019-03-06T21:32:07.707Z,2.80
2019-03-06T21:38:16.028Z,2.80
2019-03-06T21:41:17.187Z,3.27
2019-03-06T21:44:18.467Z,3.50
2019-03-06T21:47:19.686Z,3.17
2019-03-06T21:50:20.978Z,2.80
2019-03-06T21:56:28.871Z,3.60
2019-03-06T21:59:30.408Z,3.00
2019-03-06T22:02:31.704Z,3.10
2019-03-06T22:05:38.636Z,3.67
2019-03-06T22:08:40.913Z,2.90
2019-03-06T22:11:41.810Z,3.73
2019-03-06T22:14:43.475Z,3.93
2019-03-06T22:17:44.581Z,3.90
2019-03-06T22:20:45.927Z,3.60
2019-03-06T22:23:47.405Z,3.50
2019-03-06T22:26:48.786Z,4.00
2019-03-06T22:29:49.795Z,4.23
2019-03-06T22:32:51.048Z,3.93
2019-03-06T22:38:59.628Z,3.57
2019-03-06T22:42:01.668Z,3.20
2019-03-06T22:45:03.798Z,3.60
2019-03-06T22:48:09.527Z,3.57
2019-03-06T22:51:11.107Z,4.40
2019-03-06T22:54:12.500Z,4.40
2019-03-06T22:57:14.302Z,4.17
2019-03-06T23:03:15.648Z,4.40
2019-03-06T23:09:31.308Z,3.30
2019-03-06T23:12:32.373Z,3.90
2019-03-06T23:15:33.459Z,3.60
2019-03-06T23:18:35.153Z,3.90
2019-03-06T23:21:36.359Z,3.77
2019-03-06T23:24:38.178Z,3.57
2019-03-06T23:27:39.796Z,4.10
2019-03-06T23:30:41.733Z,3.50
2019-03-06T23:33:42.740Z,4.30
2019-03-06T23:39:51.464Z,4.40
2019-03-06T23:42:53.286Z,3.50
2019-03-06T23:45:54.744Z,3.80
2019-03-06T23:48:56.582Z,3.67
2019-03-06T23:55:27.984Z,4.10
2019-03-06T23:58:29.420Z,3.53
